Time;durP1;ratioP1;P1;durP2;ratioP2;P2;SDS_P1;SDS_P2;PMS_P1;PMS_P2;Temp;Humidity;BMP_temperature;BMP_pressure;BME280_temperature;BME280_humidity;BME280_pressure;Samples;Min_cycle;Max_cycle;Signal;HPM_P1;HPM_P2
2023/07/27 00:00:57;;;;;;;1.70;1.60;;;;;;;;;;5011023;28;20041;-75
2023/07/27 00:07:49;;;;;;;1.25;1.23;;;;;;;;;;5031495;28;20041;-75
2023/07/27 00:10:20;;;;;;;1.80;1.70;;;;;;;;;;5000401;28;20099;-75
2023/07/27 00:16:31;;;;;;;1.52;1.40;;;;;;;;;;5018322;28;20029;-75
2023/07/27 00:19:26;;;;;;;1.50;1.50;;;;;;;;;;4996725;28;20049;-75
2023/07/27 00:21:56;;;;;;;1.60;1.60;;;;;;;;;;4998691;28;20522;-75
2023/07/27 00:36:16;;;;;;;1.40;1.33;;;;;;;;;;5025856;28;20053;-75
2023/07/27 00:38:45;;;;;;;1.85;1.65;;;;;;;;;;5000085;28;20041;-75
2023/07/27 00:41:13;;;;;;;1.27;1.27;;;;;;;;;;5002283;28;20041;-75
2023/07/27 00:43:43;;;;;;;1.40;1.40;;;;;;;;;;5004533;28;20068;-75
2023/07/27 00:46:12;;;;;;;1.52;1.42;;;;;;;;;;5018392;28;20045;-75
2023/07/27 00:48:40;;;;;;;1.73;1.52;;;;;;;;;;5002539;28;20128;-75
2023/07/27 00:51:09;;;;;;;2.00;1.60;;;;;;;;;;5023984;28;20053;-75
2023/07/27 00:53:38;;;;;;;1.73;1.63;;;;;;;;;;5005819;28;20040;-75
2023/07/27 00:56:09;;;;;;;2.25;1.63;;;;;;;;;;5022462;28;20053;-75
2023/07/27 00:58:42;;;;;;;1.92;1.65;;;;;;;;;;5005634;28;20065;-75
2023/07/27 01:01:13;;;;;;;1.73;1.58;;;;;;;;;;5015252;28;20103;-75
2023/07/27 01:03:42;;;;;;;4.05;1.40;;;;;;;;;;5021357;28;20050;-75
2023/07/27 01:06:11;;;;;;;1.90;1.80;;;;;;;;;;5021565;28;20049;-75
2023/07/27 01:08:39;;;;;;;1.75;1.67;;;;;;;;;;5020765;28;20096;-76
2023/07/27 01:11:20;;;;;;;1.95;1.50;;;;;;;;;;5023373;28;20052;-76
2023/07/27 01:14:22;;;;;;;1.88;1.77;;;;;;;;;;5005849;28;20053;-75
2023/07/27 01:16:52;;;;;;;1.83;1.70;;;;;;;;;;4981224;28;20045;-75
2023/07/27 01:23:46;;;;;;;1.98;1.88;;;;;;;;;;5081423;22;20048;-86
2023/07/27 01:26:25;;;;;;;1.70;1.60;;;;;;;;;;5062965;28;20036;-88
2023/07/27 01:29:15;;;;;;;1.85;1.75;;;;;;;;;;5052983;28;20098;-88
2023/07/27 01:31:47;;;;;;;2.00;1.90;;;;;;;;;;5054584;28;20036;-89
2023/07/27 01:34:21;;;;;;;4.35;2.28;;;;;;;;;;5038165;28;20098;-89
2023/07/27 01:37:03;;;;;;;2.47;2.38;;;;;;;;;;5041123;28;20071;-89
2023/07/27 01:39:32;;;;;;;2.42;2.22;;;;;;;;;;5039669;28;20540;-89
2023/07/27 01:42:01;;;;;;;3.10;2.78;;;;;;;;;;5049218;28;20037;-88
2023/07/27 01:44:29;;;;;;;2.80;2.70;;;;;;;;;;5032843;28;20033;-88
2023/07/27 01:47:00;;;;;;;2.58;2.38;;;;;;;;;;5035914;28;20800;-88
2023/07/27 01:49:31;;;;;;;2.55;2.45;;;;;;;;;;5043103;28;20043;-88
2023/07/27 01:52:07;;;;;;;2.50;2.40;;;;;;;;;;5046308;28;20102;-88
2023/07/27 01:54:39;;;;;;;2.75;2.30;;;;;;;;;;5023247;28;20041;-88
2023/07/27 01:57:07;;;;;;;2.10;2.00;;;;;;;;;;5075112;28;20576;-89
2023/07/27 01:59:36;;;;;;;2.30;2.20;;;;;;;;;;5071335;28;20064;-90
2023/07/27 02:02:06;;;;;;;2.45;1.77;;;;;;;;;;5053499;28;20073;-91
2023/07/27 02:04:39;;;;;;;2.30;2.20;;;;;;;;;;5052732;28;20053;-87
2023/07/27 02:07:17;;;;;;;2.58;2.20;;;;;;;;;;5056379;28;20076;-89
2023/07/27 02:09:45;;;;;;;2.17;2.00;;;;;;;;;;5031469;28;20037;-89
2023/07/27 02:12:19;;;;;;;6.55;2.13;;;;;;;;;;5047177;28;20049;-87
2023/07/27 02:15:02;;;;;;;2.67;1.80;;;;;;;;;;5044601;28;20236;-89
2023/07/27 02:17:42;;;;;;;1.50;1.40;;;;;;;;;;5029635;28;20037;-90
2023/07/27 02:20:11;;;;;;;1.95;1.85;;;;;;;;;;5028249;28;20048;-89
2023/07/27 02:22:40;;;;;;;2.03;1.90;;;;;;;;;;5023291;28;20041;-90
2023/07/27 02:25:08;;;;;;;2.65;2.00;;;;;;;;;;5046184;28;20041;-89
2023/07/27 02:27:40;;;;;;;2.05;1.77;;;;;;;;;;5027956;28;20090;-89
2023/07/27 02:30:10;;;;;;;3.17;1.90;;;;;;;;;;5024239;28;20041;-89
2023/07/27 02:32:38;;;;;;;1.80;1.70;;;;;;;;;;5023449;28;20097;-90
2023/07/27 02:35:06;;;;;;;2.45;2.22;;;;;;;;;;5013131;28;20041;-90
2023/07/27 02:37:34;;;;;;;2.20;2.10;;;;;;;;;;5020654;28;20571;-89
2023/07/27 02:40:02;;;;;;;2.42;2.20;;;;;;;;;;5047733;28;20049;-90
2023/07/27 02:42:31;;;;;;;3.00;2.25;;;;;;;;;;5028027;28;20131;-90
2023/07/27 02:45:02;;;;;;;3.00;2.75;;;;;;;;;;5007738;28;20129;-90
2023/07/27 02:47:38;;;;;;;2.00;1.90;;;;;;;;;;5043765;28;20107;-89
2023/07/27 02:50:09;;;;;;;2.85;2.65;;;;;;;;;;5036038;28;20521;-90
2023/07/27 02:53:07;;;;;;;6.85;2.80;;;;;;;;;;5034059;28;20041;-90
2023/07/27 02:55:43;;;;;;;3.17;2.15;;;;;;;;;;5051382;28;20046;-89
2023/07/27 02:58:14;;;;;;;2.58;2.47;;;;;;;;;;5033901;28;20104;-90
2023/07/27 03:00:45;;;;;;;2.72;2.47;;;;;;;;;;5026438;28;20571;-90
2023/07/27 03:03:14;;;;;;;2.70;2.53;;;;;;;;;;5065168;28;20041;-89
2023/07/27 03:05:47;;;;;;;4.30;2.70;;;;;;;;;;5032541;28;20090;-88
2023/07/27 03:08:18;;;;;;;2.30;2.20;;;;;;;;;;5034253;28;20045;-88
2023/07/27 03:10:46;;;;;;;5.93;2.75;;;;;;;;;;5060213;28;20751;-90
2023/07/27 03:13:15;;;;;;;2.45;2.35;;;;;;;;;;5063390;28;20673;-90
2023/07/27 03:15:55;;;;;;;2.80;2.60;;;;;;;;;;5049268;28;20049;-89
2023/07/27 03:18:32;;;;;;;3.40;3.08;;;;;;;;;;5027895;28;20116;-88
2023/07/27 03:21:02;;;;;;;3.28;2.92;;;;;;;;;;5030199;28;20049;-90
2023/07/27 03:23:30;;;;;;;2.88;2.70;;;;;;;;;;5053522;28;20056;-89
2023/07/27 03:25:58;;;;;;;2.80;2.70;;;;;;;;;;5040351;28;20132;-88
2023/07/27 03:28:31;;;;;;;2.88;2.75;;;;;;;;;;5052196;28;20053;-90
2023/07/27 03:31:17;;;;;;;2.80;2.60;;;;;;;;;;5024698;28;20053;-89
2023/07/27 03:33:58;;;;;;;5.47;3.13;;;;;;;;;;5033934;28;20049;-89
2023/07/27 03:36:25;;;;;;;3.25;3.05;;;;;;;;;;5035245;28;20430;-89
2023/07/27 03:39:03;;;;;;;3.92;3.50;;;;;;;;;;5029027;28;20061;-90
2023/07/27 03:41:31;;;;;;;4.55;3.03;;;;;;;;;;5058688;22;20132;-85
2023/07/27 03:43:59;;;;;;;3.40;3.20;;;;;;;;;;5031328;28;20143;-85
2023/07/27 03:46:26;;;;;;;3.70;3.40;;;;;;;;;;5029361;28;20037;-85
2023/07/27 03:48:54;;;;;;;3.30;3.00;;;;;;;;;;5020309;28;20572;-84
2023/07/27 03:51:21;;;;;;;3.35;3.15;;;;;;;;;;5024600;28;20049;-85
2023/07/27 03:53:51;;;;;;;4.28;3.05;;;;;;;;;;5022352;28;20616;-84
2023/07/27 03:56:32;;;;;;;2.85;2.65;;;;;;;;;;5026469;28;20049;-85
2023/07/27 03:59:00;;;;;;;2.75;2.55;;;;;;;;;;5021445;28;20049;-84
2023/07/27 04:01:27;;;;;;;3.10;2.90;;;;;;;;;;5022780;28;20032;-85
2023/07/27 04:03:55;;;;;;;2.78;2.67;;;;;;;;;;5007384;28;20053;-82
2023/07/27 04:06:23;;;;;;;3.22;2.30;;;;;;;;;;5026452;28;20507;-84
2023/07/27 04:08:50;;;;;;;3.67;2.95;;;;;;;;;;5022674;28;20408;-85
2023/07/27 04:11:17;;;;;;;2.65;2.55;;;;;;;;;;5041396;28;20204;-85
2023/07/27 04:13:45;;;;;;;2.70;2.50;;;;;;;;;;5039084;28;20395;-85
2023/07/27 04:16:12;;;;;;;3.80;2.70;;;;;;;;;;5023754;28;20072;-85
2023/07/27 04:18:40;;;;;;;3.20;2.38;;;;;;;;;;5042269;28;20666;-85
2023/07/27 04:21:07;;;;;;;6.40;3.20;;;;;;;;;;5039930;28;20029;-86
2023/07/27 04:23:35;;;;;;;2.97;2.78;;;;;;;;;;5040736;28;20115;-86
2023/07/27 04:26:03;;;;;;;3.33;2.65;;;;;;;;;;5024038;28;20045;-85
2023/07/27 04:28:30;;;;;;;2.38;2.28;;;;;;;;;;5019962;28;20041;-85
2023/07/27 04:30:57;;;;;;;2.88;2.67;;;;;;;;;;5042058;28;20136;-85
2023/07/27 04:33:27;;;;;;;2.50;2.40;;;;;;;;;;5048991;23;20126;-74
2023/07/27 04:35:57;;;;;;;3.47;2.70;;;;;;;;;;5030111;28;20045;-73
2023/07/27 04:38:24;;;;;;;3.03;2.85;;;;;;;;;;5026546;28;20059;-73
2023/07/27 04:40:52;;;;;;;2.80;2.60;;;;;;;;;;5031788;28;20072;-73
2023/07/27 04:43:20;;;;;;;3.03;2.83;;;;;;;;;;5038112;28;20056;-73
2023/07/27 04:45:47;;;;;;;2.70;2.50;;;;;;;;;;5013743;28;20049;-73
2023/07/27 04:48:15;;;;;;;2.40;2.20;;;;;;;;;;5028642;28;20049;-73
2023/07/27 04:50:42;;;;;;;2.60;2.40;;;;;;;;;;5034570;28;20055;-73
2023/07/27 04:53:10;;;;;;;2.72;2.53;;;;;;;;;;5028594;28;20141;-73
2023/07/27 04:55:37;;;;;;;3.00;2.80;;;;;;;;;;5036567;28;20114;-74
2023/07/27 04:58:05;;;;;;;2.90;2.70;;;;;;;;;;5030093;28;20088;-73
2023/07/27 05:00:33;;;;;;;3.05;2.85;;;;;;;;;;5038760;28;20049;-73
2023/07/27 05:03:00;;;;;;;2.50;2.40;;;;;;;;;;5022143;28;20072;-73
2023/07/27 05:05:28;;;;;;;2.55;2.35;;;;;;;;;;5019919;28;20045;-74
2023/07/27 05:07:55;;;;;;;3.30;3.10;;;;;;;;;;5035268;28;20049;-74
2023/07/27 05:10:23;;;;;;;2.78;2.60;;;;;;;;;;5034170;28;20044;-73
2023/07/27 05:12:51;;;;;;;4.28;2.63;;;;;;;;;;5030798;28;20426;-74
2023/07/27 05:15:18;;;;;;;3.30;3.10;;;;;;;;;;5031540;28;20041;-74
2023/07/27 05:17:46;;;;;;;3.13;2.92;;;;;;;;;;5039949;28;20159;-73
2023/07/27 05:20:13;;;;;;;3.65;3.45;;;;;;;;;;5026852;28;20123;-73
2023/07/27 05:22:42;;;;;;;4.10;3.80;;;;;;;;;;5027797;28;20132;-73
2023/07/27 05:25:10;;;;;;;3.42;3.22;;;;;;;;;;5032813;28;20056;-73
2023/07/27 05:27:38;;;;;;;4.22;3.92;;;;;;;;;;5029956;28;20642;-73
2023/07/27 05:30:05;;;;;;;3.42;3.20;;;;;;;;;;5026090;28;20053;-73
2023/07/27 05:32:33;;;;;;;4.57;3.50;;;;;;;;;;5029132;28;20519;-73
2023/07/27 05:35:01;;;;;;;3.60;3.40;;;;;;;;;;5032674;28;20071;-74
2023/07/27 05:37:28;;;;;;;3.22;3.03;;;;;;;;;;5031588;28;20225;-73
2023/07/27 05:39:56;;;;;;;3.22;3.03;;;;;;;;;;5029864;28;20065;-73
2023/07/27 05:42:23;;;;;;;3.95;3.72;;;;;;;;;;5007125;28;20099;-74
2023/07/27 05:44:51;;;;;;;4.47;4.07;;;;;;;;;;5011055;28;20056;-73
2023/07/27 05:47:18;;;;;;;4.40;3.55;;;;;;;;;;5030881;28;20374;-74
2023/07/27 05:49:46;;;;;;;3.47;3.28;;;;;;;;;;5030698;28;20119;-73
2023/07/27 05:52:14;;;;;;;3.70;3.50;;;;;;;;;;5028784;28;20055;-74
2023/07/27 05:54:41;;;;;;;4.13;3.67;;;;;;;;;;5030301;28;20049;-73
2023/07/27 05:57:09;;;;;;;4.00;3.72;;;;;;;;;;5032536;28;20048;-74
2023/07/27 05:59:36;;;;;;;4.15;3.75;;;;;;;;;;5028054;28;20034;-74
2023/07/27 06:02:06;;;;;;;4.40;4.10;;;;;;;;;;5029889;28;20051;-73
2023/07/27 06:04:34;;;;;;;4.35;3.90;;;;;;;;;;5028796;28;20050;-73
2023/07/27 06:07:02;;;;;;;3.72;3.50;;;;;;;;;;5032290;28;20048;-74
2023/07/27 06:09:29;;;;;;;4.55;4.00;;;;;;;;;;5032664;28;20045;-74
2023/07/27 06:11:57;;;;;;;4.32;3.92;;;;;;;;;;5027878;28;20518;-74
2023/07/27 06:14:25;;;;;;;3.60;3.30;;;;;;;;;;5028594;28;20144;-73
2023/07/27 06:16:52;;;;;;;4.20;3.90;;;;;;;;;;5033119;28;20041;-73
2023/07/27 06:19:20;;;;;;;4.05;3.75;;;;;;;;;;5026551;28;20042;-73
2023/07/27 06:21:47;;;;;;;3.55;3.35;;;;;;;;;;5027102;28;20120;-74
2023/07/27 06:24:15;;;;;;;3.95;3.65;;;;;;;;;;5025070;28;20403;-73
2023/07/27 06:26:42;;;;;;;3.97;3.67;;;;;;;;;;5028661;28;20046;-74
2023/07/27 06:29:10;;;;;;;8.10;7.50;;;;;;;;;;5027266;28;20073;-72
2023/07/27 06:31:37;;;;;;;3.90;3.65;;;;;;;;;;5030596;28;20045;-74
2023/07/27 06:34:05;;;;;;;3.42;3.22;;;;;;;;;;5029760;28;20033;-73
2023/07/27 06:36:32;;;;;;;4.32;3.92;;;;;;;;;;5034491;28;20103;-74
2023/07/27 06:39:01;;;;;;;3.38;3.13;;;;;;;;;;5034889;28;20605;-74
2023/07/27 06:41:28;;;;;;;3.30;3.10;;;;;;;;;;5037640;28;20053;-73
2023/07/27 06:43:59;;;;;;;3.25;3.05;;;;;;;;;;5041255;28;20083;-74
2023/07/27 06:46:27;;;;;;;3.83;3.55;;;;;;;;;;5033551;28;20487;-74
2023/07/27 06:48:54;;;;;;;3.15;2.85;;;;;;;;;;5036171;28;20071;-73
2023/07/27 06:51:23;;;;;;;3.28;3.08;;;;;;;;;;5037653;28;20045;-73
2023/07/27 06:53:51;;;;;;;3.08;2.88;;;;;;;;;;5027118;28;20519;-73
2023/07/27 06:56:19;;;;;;;3.50;3.20;;;;;;;;;;5029132;28;20045;-73
2023/07/27 06:58:46;;;;;;;3.10;2.90;;;;;;;;;;5031497;28;20158;-74
2023/07/27 07:01:14;;;;;;;3.10;2.90;;;;;;;;;;5032432;28;20075;-73
2023/07/27 07:03:42;;;;;;;3.40;3.10;;;;;;;;;;5034921;28;20564;-74
2023/07/27 07:06:09;;;;;;;2.70;2.50;;;;;;;;;;5033779;28;20144;-75
2023/07/27 07:08:37;;;;;;;2.80;2.60;;;;;;;;;;5028145;28;20592;-76
2023/07/27 07:11:05;;;;;;;5.45;2.33;;;;;;;;;;5033162;28;20367;-74
2023/07/27 07:13:33;;;;;;;2.63;2.30;;;;;;;;;;5027595;28;20048;-75
2023/07/27 07:16:00;;;;;;;1.80;1.70;;;;;;;;;;5034230;28;20158;-74
2023/07/27 07:18:28;;;;;;;2.28;1.60;;;;;;;;;;5029266;28;20050;-75
2023/07/27 07:20:56;;;;;;;1.83;1.73;;;;;;;;;;5030001;28;20042;-74
2023/07/27 07:23:24;;;;;;;1.90;1.80;;;;;;;;;;5034247;28;20083;-75
2023/07/27 07:25:51;;;;;;;1.50;1.40;;;;;;;;;;5033895;28;20324;-75
2023/07/27 07:28:19;;;;;;;1.80;1.70;;;;;;;;;;5018604;28;20133;-74
2023/07/27 07:30:46;;;;;;;1.50;1.30;;;;;;;;;;5042260;28;20041;-76
2023/07/27 07:33:14;;;;;;;1.60;1.50;;;;;;;;;;5036501;28;20123;-75
2023/07/27 07:35:42;;;;;;;1.63;1.52;;;;;;;;;;5032566;28;20049;-75
2023/07/27 07:38:10;;;;;;;1.50;1.40;;;;;;;;;;5020021;28;20041;-75
2023/07/27 07:40:37;;;;;;;3.00;1.58;;;;;;;;;;5035212;28;20037;-75
2023/07/27 07:43:07;;;;;;;2.10;2.00;;;;;;;;;;5016969;28;20045;-74
2023/07/27 07:45:34;;;;;;;1.63;1.52;;;;;;;;;;5033012;28;20551;-75
2023/07/27 07:48:04;;;;;;;1.67;1.58;;;;;;;;;;5038200;28;20081;-76
2023/07/27 07:50:36;;;;;;;2.35;1.80;;;;;;;;;;5034269;28;20430;-75
2023/07/27 07:53:05;;;;;;;1.70;1.60;;;;;;;;;;5032339;28;20762;-75
2023/07/27 07:55:36;;;;;;;1.45;1.35;;;;;;;;;;5034550;28;20473;-75
2023/07/27 07:58:06;;;;;;;2.00;1.70;;;;;;;;;;5036109;28;20045;-74
2023/07/27 08:00:34;;;;;;;3.95;3.75;;;;;;;;;;5036054;28;20719;-75
2023/07/27 08:03:01;;;;;;;1.63;1.58;;;;;;;;;;5030213;28;20045;-74
2023/07/27 08:05:29;;;;;;;5.75;4.10;;;;;;;;;;5028263;28;20144;-74
2023/07/27 08:07:56;;;;;;;2.03;1.80;;;;;;;;;;5028287;28;20049;-74
2023/07/27 08:10:25;;;;;;;1.88;1.77;;;;;;;;;;5020578;28;20570;-74
2023/07/27 08:12:53;;;;;;;1.60;1.50;;;;;;;;;;5025302;28;20061;-75
2023/07/27 08:15:21;;;;;;;1.75;1.65;;;;;;;;;;5030718;28;20086;-74
2023/07/27 08:17:48;;;;;;;1.60;1.50;;;;;;;;;;5019789;28;20474;-74
2023/07/27 08:20:16;;;;;;;1.60;1.50;;;;;;;;;;5018706;28;20273;-74
2023/07/27 08:22:44;;;;;;;1.85;1.70;;;;;;;;;;5029713;28;20053;-75
2023/07/27 08:25:11;;;;;;;2.63;1.58;;;;;;;;;;5018482;28;20053;-75
2023/07/27 08:27:50;;;;;;;1.60;1.50;;;;;;;;;;5027894;28;20088;-74
2023/07/27 08:30:18;;;;;;;1.65;1.55;;;;;;;;;;5020342;28;20051;-74
2023/07/27 08:32:49;;;;;;;1.48;1.35;;;;;;;;;;5027800;28;20139;-74
2023/07/27 08:35:16;;;;;;;1.63;1.40;;;;;;;;;;5020064;28;20053;-74
2023/07/27 08:37:44;;;;;;;1.75;1.65;;;;;;;;;;5030777;28;20503;-74
2023/07/27 08:40:12;;;;;;;2.22;1.60;;;;;;;;;;5027363;28;20052;-73
2023/07/27 08:42:46;;;;;;;1.67;1.58;;;;;;;;;;5028328;28;20349;-74
2023/07/27 08:45:16;;;;;;;1.63;1.40;;;;;;;;;;5023396;28;20377;-75
2023/07/27 08:47:44;;;;;;;2.25;1.48;;;;;;;;;;5038949;28;20438;-73
2023/07/27 08:50:13;;;;;;;1.55;1.45;;;;;;;;;;5025254;28;20045;-73
2023/07/27 08:52:40;;;;;;;1.60;1.50;;;;;;;;;;5020933;28;20042;-74
2023/07/27 08:55:08;;;;;;;2.45;1.63;;;;;;;;;;5020677;28;20223;-73
2023/07/27 08:57:36;;;;;;;4.00;1.60;;;;;;;;;;5027122;28;20053;-73
2023/07/27 09:00:04;;;;;;;3.13;1.33;;;;;;;;;;5033184;28;20137;-73
2023/07/27 09:02:31;;;;;;;1.70;1.50;;;;;;;;;;5022394;28;20546;-72
2023/07/27 09:04:59;;;;;;;1.38;1.35;;;;;;;;;;5021894;28;20057;-73
2023/07/27 09:07:27;;;;;;;1.70;1.60;;;;;;;;;;5009017;28;20428;-75
2023/07/27 09:09:55;;;;;;;1.90;1.80;;;;;;;;;;5020019;28;20049;-74
2023/07/27 09:12:23;;;;;;;2.33;1.60;;;;;;;;;;5022044;28;20053;-74
2023/07/27 09:14:51;;;;;;;2.00;1.35;;;;;;;;;;5028327;28;20053;-73
2023/07/27 09:17:19;;;;;;;1.58;1.42;;;;;;;;;;5026545;28;20045;-74
2023/07/27 09:19:46;;;;;;;1.58;1.48;;;;;;;;;;5021940;28;20060;-74
2023/07/27 09:22:14;;;;;;;1.27;1.27;;;;;;;;;;5020336;28;20056;-74
2023/07/27 09:24:42;;;;;;;2.08;1.98;;;;;;;;;;5028482;28;20104;-73
2023/07/27 09:27:10;;;;;;;1.63;1.52;;;;;;;;;;5031859;28;20068;-74
2023/07/27 09:29:38;;;;;;;1.60;1.50;;;;;;;;;;5028938;28;20601;-74
2023/07/27 09:32:09;;;;;;;3.33;3.13;;;;;;;;;;5021814;28;20093;-75
2023/07/27 09:34:37;;;;;;;1.70;1.60;;;;;;;;;;5021693;28;20049;-74
2023/07/27 09:37:05;;;;;;;1.92;1.83;;;;;;;;;;5028815;28;20507;-74
2023/07/27 09:39:34;;;;;;;1.70;1.60;;;;;;;;;;5021186;28;20184;-74
2023/07/27 09:42:27;;;;;;;2.05;1.40;;;;;;;;;;5137121;22;20093;31
2023/07/27 09:44:55;;;;;;;3.40;1.65;;;;;;;;;;4984570;28;20104;-77
2023/07/27 09:47:29;;;;;;;1.20;1.20;;;;;;;;;;4999246;28;20050;-75
2023/07/27 09:50:00;;;;;;;2.88;1.50;;;;;;;;;;4995884;28;20053;-76
2023/07/27 09:52:29;;;;;;;1.50;1.40;;;;;;;;;;5002973;28;20064;-75
2023/07/27 09:54:57;;;;;;;2.33;1.23;;;;;;;;;;5000888;28;20180;-76
2023/07/27 09:57:27;;;;;;;1.50;1.40;;;;;;;;;;5003120;28;20046;-78
2023/07/27 09:59:54;;;;;;;1.27;1.27;;;;;;;;;;4976355;28;20081;-76
2023/07/27 10:02:22;;;;;;;1.77;1.40;;;;;;;;;;5001871;28;20133;-76
2023/07/27 10:04:58;;;;;;;1.35;1.25;;;;;;;;;;4995004;28;20060;-76
2023/07/27 10:07:26;;;;;;;1.00;1.00;;;;;;;;;;4999536;28;20045;-77
2023/07/27 10:10:29;;;;;;;1.30;1.20;;;;;;;;;;5000664;28;20050;-76
2023/07/27 10:12:57;;;;;;;1.60;1.50;;;;;;;;;;4995737;28;20044;-77
2023/07/27 10:15:26;;;;;;;1.15;1.10;;;;;;;;;;4997787;28;20054;-77
2023/07/27 10:17:58;;;;;;;1.35;1.27;;;;;;;;;;5000197;28;20049;-78
2023/07/27 10:20:27;;;;;;;1.30;1.20;;;;;;;;;;5007848;28;20500;-77
2023/07/27 10:23:13;;;;;;;1.83;1.65;;;;;;;;;;5005436;28;20041;-77
2023/07/27 10:25:55;;;;;;;1.35;1.25;;;;;;;;;;5007773;28;20112;-77
2023/07/27 10:28:30;;;;;;;1.98;1.58;;;;;;;;;;4979000;28;20160;-75
2023/07/27 10:31:16;;;;;;;1.60;1.50;;;;;;;;;;5004673;28;20249;-76
2023/07/27 10:33:48;;;;;;;1.27;1.20;;;;;;;;;;5010997;28;20050;-76
2023/07/27 10:36:16;;;;;;;1.42;1.17;;;;;;;;;;5001390;28;20119;-76
2023/07/27 10:38:52;;;;;;;1.45;1.35;;;;;;;;;;5001716;28;20116;-78
2023/07/27 10:41:25;;;;;;;1.30;1.30;;;;;;;;;;5001352;28;20049;-76
2023/07/27 10:44:08;;;;;;;1.48;1.35;;;;;;;;;;5001261;28;20050;-74
2023/07/27 10:46:36;;;;;;;1.42;1.40;;;;;;;;;;4982746;28;20169;-76
2023/07/27 10:49:09;;;;;;;1.23;1.20;;;;;;;;;;5001055;28;20049;-76
2023/07/27 10:51:36;;;;;;;1.58;1.27;;;;;;;;;;4981862;28;20046;-76
2023/07/27 10:54:04;;;;;;;1.42;1.33;;;;;;;;;;4998883;28;20062;-75
2023/07/27 10:56:32;;;;;;;1.98;1.13;;;;;;;;;;4998855;28;20049;-74
2023/07/27 10:59:02;;;;;;;1.20;1.20;;;;;;;;;;4996814;28;20431;-75
2023/07/27 11:01:31;;;;;;;1.67;1.30;;;;;;;;;;4999482;28;20064;-75
2023/07/27 11:03:59;;;;;;;1.35;1.25;;;;;;;;;;4991083;28;20080;-74
2023/07/27 11:06:28;;;;;;;1.25;1.20;;;;;;;;;;4997276;28;20068;-75
2023/07/27 11:08:59;;;;;;;1.40;1.30;;;;;;;;;;4996446;28;20112;-75
2023/07/27 11:11:29;;;;;;;2.40;1.20;;;;;;;;;;4993138;28;20050;-75
2023/07/27 11:14:05;;;;;;;1.35;1.25;;;;;;;;;;4995441;28;20133;-76
2023/07/27 11:16:37;;;;;;;1.35;1.27;;;;;;;;;;4995457;28;20046;-76
2023/07/27 11:19:07;;;;;;;1.50;1.40;;;;;;;;;;4995169;28;20050;-75
2023/07/27 11:21:40;;;;;;;1.50;1.40;;;;;;;;;;4995957;28;20648;-75
2023/07/27 11:24:08;;;;;;;3.50;1.50;;;;;;;;;;4992557;28;20064;-75
2023/07/27 11:26:37;;;;;;;1.30;1.23;;;;;;;;;;4973160;28;20058;-75
2023/07/27 11:29:06;;;;;;;3.70;1.67;;;;;;;;;;4992682;28;20079;-75
2023/07/27 11:31:34;;;;;;;1.30;1.23;;;;;;;;;;4996791;28;20297;-76
2023/07/27 11:34:03;;;;;;;1.98;1.60;;;;;;;;;;4994700;28;20054;-75
2023/07/27 11:36:33;;;;;;;2.83;1.50;;;;;;;;;;4990657;28;20050;-76
2023/07/27 11:39:04;;;;;;;1.00;1.00;;;;;;;;;;4995322;28;20050;-74
2023/07/27 11:41:32;;;;;;;1.33;1.23;;;;;;;;;;4979385;28;20191;-76
2023/07/27 11:44:15;;;;;;;1.48;1.30;;;;;;;;;;4986010;28;20137;-76
2023/07/27 11:46:46;;;;;;;1.60;1.50;;;;;;;;;;4998316;28;20049;-76
2023/07/27 11:49:14;;;;;;;1.20;1.20;;;;;;;;;;4991932;28;20042;-76
2023/07/27 11:51:44;;;;;;;1.20;1.20;;;;;;;;;;4995799;28;20065;-77
2023/07/27 11:54:20;;;;;;;1.13;1.02;;;;;;;;;;4985328;28;20046;-77
2023/07/27 11:56:55;;;;;;;1.10;1.10;;;;;;;;;;4983906;28;20152;-76
2023/07/27 11:59:23;;;;;;;3.92;1.27;;;;;;;;;;4983565;28;20054;-76
2023/07/27 12:01:52;;;;;;;3.33;1.30;;;;;;;;;;4967716;28;20060;-76
2023/07/27 12:04:20;;;;;;;1.58;1.30;;;;;;;;;;4984156;28;20049;-77
2023/07/27 12:06:49;;;;;;;1.48;1.20;;;;;;;;;;4985981;28;20598;-76
2023/07/27 12:09:17;;;;;;;1.10;1.10;;;;;;;;;;4988809;28;20518;-75
2023/07/27 12:11:45;;;;;;;1.38;1.23;;;;;;;;;;4987992;28;20058;-76
2023/07/27 12:14:12;;;;;;;1.70;1.10;;;;;;;;;;4983777;28;20058;-75
2023/07/27 12:16:40;;;;;;;1.80;1.30;;;;;;;;;;4971721;28;20124;-76
2023/07/27 12:19:19;;;;;;;0.95;0.95;;;;;;;;;;4989562;28;20049;-75
2023/07/27 12:21:50;;;;;;;1.83;1.20;;;;;;;;;;4970848;28;20060;-76
2023/07/27 12:24:22;;;;;;;1.20;1.20;;;;;;;;;;4985567;28;21678;-77
2023/07/27 12:26:53;;;;;;;2.83;1.27;;;;;;;;;;4987581;28;20050;-76
2023/07/27 12:29:24;;;;;;;1.08;1.08;;;;;;;;;;4986284;28;20050;-75
2023/07/27 12:31:54;;;;;;;1.25;1.20;;;;;;;;;;4987400;28;20050;-75
2023/07/27 12:34:24;;;;;;;1.10;1.10;;;;;;;;;;5000874;28;20104;-75
2023/07/27 12:36:52;;;;;;;1.30;1.20;;;;;;;;;;4999562;28;20070;-76
2023/07/27 12:39:23;;;;;;;2.23;1.30;;;;;;;;;;4995958;28;20045;-75
2023/07/27 12:41:50;;;;;;;2.38;1.20;;;;;;;;;;4995359;28;20053;-77
2023/07/27 12:44:21;;;;;;;1.60;1.50;;;;;;;;;;4993966;28;20041;-76
2023/07/27 12:46:48;;;;;;;1.10;1.10;;;;;;;;;;4997320;28;20507;-75
2023/07/27 12:49:16;;;;;;;1.50;1.40;;;;;;;;;;5006097;28;20065;-76
2023/07/27 12:55:03;;;;;;;1.00;1.00;;;;;;;;;;4988317;28;20389;-77
2023/07/27 12:57:31;;;;;;;1.20;1.20;;;;;;;;;;5007748;28;20125;-77
2023/07/27 12:59:58;;;;;;;1.05;1.02;;;;;;;;;;5006954;28;20404;-76
2023/07/27 13:02:26;;;;;;;1.67;1.20;;;;;;;;;;5005506;28;20041;-77
2023/07/27 13:04:53;;;;;;;1.48;1.38;;;;;;;;;;5006970;28;20057;-77
2023/07/27 13:07:21;;;;;;;1.00;1.00;;;;;;;;;;5006847;28;20125;-76
2023/07/27 13:09:50;;;;;;;1.10;1.10;;;;;;;;;;5006447;28;20067;-77
2023/07/27 13:12:18;;;;;;;1.20;1.10;;;;;;;;;;5006792;28;20810;-76
2023/07/27 13:14:45;;;;;;;1.13;1.13;;;;;;;;;;5007073;28;20038;-76
2023/07/27 13:17:13;;;;;;;1.23;1.23;;;;;;;;;;5007178;28;20046;-76
2023/07/27 13:19:41;;;;;;;1.20;1.15;;;;;;;;;;5006106;28;20046;-76
2023/07/27 13:22:08;;;;;;;2.35;1.10;;;;;;;;;;4999772;28;20070;-75
2023/07/27 13:24:36;;;;;;;1.20;1.20;;;;;;;;;;5006981;28;20053;-78
2023/07/27 13:27:04;;;;;;;1.30;1.20;;;;;;;;;;5007370;28;20050;-76
2023/07/27 13:29:41;;;;;;;1.67;1.23;;;;;;;;;;5006484;28;20124;-75
2023/07/27 13:32:09;;;;;;;1.10;1.10;;;;;;;;;;5007525;28;20057;-76
2023/07/27 13:34:37;;;;;;;2.58;1.30;;;;;;;;;;5008032;28;20103;-75
2023/07/27 13:37:06;;;;;;;1.73;1.05;;;;;;;;;;5015560;28;20049;-76
2023/07/27 13:39:35;;;;;;;1.20;1.10;;;;;;;;;;5018317;28;20065;-76
2023/07/27 13:42:03;;;;;;;1.20;1.20;;;;;;;;;;5005737;28;20069;-77
2023/07/27 13:44:31;;;;;;;1.52;1.42;;;;;;;;;;5001133;28;20057;-76
2023/07/27 13:46:58;;;;;;;1.17;1.02;;;;;;;;;;5006303;28;20054;-76
2023/07/27 13:49:27;;;;;;;1.17;1.17;;;;;;;;;;5006835;28;20049;-76
2023/07/27 13:51:54;;;;;;;1.23;1.20;;;;;;;;;;5001211;28;20053;-76
2023/07/27 13:54:22;;;;;;;2.92;1.08;;;;;;;;;;5002037;28;20045;-76
2023/07/27 13:56:50;;;;;;;1.65;1.42;;;;;;;;;;5001984;28;20047;-76
2023/07/27 13:59:18;;;;;;;1.60;1.50;;;;;;;;;;4999072;28;20507;-76
2023/07/27 14:01:46;;;;;;;1.40;1.30;;;;;;;;;;5000537;28;20052;-76
2023/07/27 14:04:13;;;;;;;1.20;1.20;;;;;;;;;;5000742;28;20761;-76
2023/07/27 14:06:41;;;;;;;1.25;1.25;;;;;;;;;;4999458;28;20077;-76
2023/07/27 14:09:09;;;;;;;1.25;1.25;;;;;;;;;;5003368;28;20060;-76
2023/07/27 14:11:36;;;;;;;1.27;1.17;;;;;;;;;;5005354;28;20053;-75
2023/07/27 14:14:04;;;;;;;2.42;1.25;;;;;;;;;;5006021;28;20050;-76
2023/07/27 14:16:32;;;;;;;1.40;1.30;;;;;;;;;;4999930;28;20045;-76
2023/07/27 14:19:00;;;;;;;1.40;1.30;;;;;;;;;;5004386;28;20060;-78
2023/07/27 14:21:27;;;;;;;1.92;1.52;;;;;;;;;;5006372;28;20123;-76
2023/07/27 14:23:55;;;;;;;2.45;1.30;;;;;;;;;;5000924;28;20663;-76
2023/07/27 14:26:22;;;;;;;3.88;1.40;;;;;;;;;;4998933;28;20527;-76
2023/07/27 14:28:52;;;;;;;1.40;1.30;;;;;;;;;;4986609;28;20157;-76
2023/07/27 14:31:19;;;;;;;1.17;1.17;;;;;;;;;;4997946;28;20535;-76
2023/07/27 14:33:47;;;;;;;1.15;1.10;;;;;;;;;;4994513;28;20420;-77
2023/07/27 14:36:15;;;;;;;1.98;1.88;;;;;;;;;;4988259;28;20401;-78
2023/07/27 14:38:42;;;;;;;1.30;1.15;;;;;;;;;;4993978;28;20849;-77
2023/07/27 14:41:10;;;;;;;1.27;1.27;;;;;;;;;;5003924;28;20061;-77
2023/07/27 14:43:40;;;;;;;3.20;1.23;;;;;;;;;;5005510;28;20128;-78
2023/07/27 14:46:11;;;;;;;2.38;1.38;;;;;;;;;;4991006;28;20480;-77
2023/07/27 14:48:39;;;;;;;2.70;1.60;;;;;;;;;;4993902;28;20050;-77
2023/07/27 14:51:06;;;;;;;2.10;1.80;;;;;;;;;;5003794;28;20053;-78
2023/07/27 14:53:34;;;;;;;1.45;1.35;;;;;;;;;;5001106;28;20057;-77
2023/07/27 14:56:02;;;;;;;1.70;1.40;;;;;;;;;;5005220;28;20042;-77
2023/07/27 14:58:29;;;;;;;1.13;1.13;;;;;;;;;;5006446;28;20054;-77
2023/07/27 15:01:00;;;;;;;1.05;1.05;;;;;;;;;;5006068;28;20459;-77
2023/07/27 15:03:36;;;;;;;1.58;1.48;;;;;;;;;;5005780;28;20046;-77
2023/07/27 15:06:06;;;;;;;;;;;;;;;;;;5004263;28;20116;-77
2023/07/27 15:08:34;;;;;;;1.60;1.48;;;;;;;;;;5003288;28;20375;-77
2023/07/27 15:11:01;;;;;;;1.50;1.40;;;;;;;;;;4995305;28;20145;-77
2023/07/27 15:13:32;;;;;;;1.37;1.30;;;;;;;;;;5001036;28;20081;-77
2023/07/27 15:15:59;;;;;;;1.35;1.33;;;;;;;;;;5003156;28;20308;-77
2023/07/27 15:18:27;;;;;;;1.38;1.27;;;;;;;;;;5004488;28;20145;-77
2023/07/27 15:20:56;;;;;;;1.77;1.25;;;;;;;;;;4996716;28;20098;-77
2023/07/27 15:23:24;;;;;;;1.42;1.33;;;;;;;;;;4998431;28;20057;-77
2023/07/27 15:25:58;;;;;;;3.08;1.20;;;;;;;;;;4978816;28;20514;-77